sensor_id;sensor_type;location;lat;lon;timestamp;temperature;humidity
14000;DHT22;7075;53.574;10.054;2023-02-13T00:01:11;8.20;99.90
14000;DHT22;7075;53.574;10.054;2023-02-13T00:03:37;8.20;99.90
14000;DHT22;7075;53.574;10.054;2023-02-13T00:06:03;8.30;99.90
14000;DHT22;7075;53.574;10.054;2023-02-13T00:08:28;8.30;99.90
14000;DHT22;7075;53.574;10.054;2023-02-13T00:10:54;8.30;99.90
14000;DHT22;7075;53.574;10.054;2023-02-13T00:13:19;8.20;99.90
14000;DHT22;7075;53.574;10.054;2023-02-13T00:15:45;8.20;99.90
14000;DHT22;7075;53.574;10.054;2023-02-13T00:18:10;8.20;99.90
14000;DHT22;7075;53.574;10.054;2023-02-13T00:20:36;8.20;99.90
14000;DHT22;7075;53.574;10.054;2023-02-13T00:23:01;8.20;99.90
14000;DHT22;7075;53.574;10.054;2023-02-13T00:25:27;8.20;99.90
14000;DHT22;7075;53.574;10.054;2023-02-13T00:27:52;8.20;99.90
14000;DHT22;7075;53.574;10.054;2023-02-13T00:30:19;8.20;99.90
14000;DHT22;7075;53.574;10.054;2023-02-13T00:32:45;8.20;99.90
14000;DHT22;7075;53.574;10.054;2023-02-13T00:35:10;8.20;99.90
14000;DHT22;7075;53.574;10.054;2023-02-13T00:37:36;8.20;99.90
14000;DHT22;7075;53.574;10.054;2023-02-13T00:40:02;8.20;99.90
14000;DHT22;7075;53.574;10.054;2023-02-13T00:42:27;8.20;99.90
14000;DHT22;7075;53.574;10.054;2023-02-13T00:44:53;8.20;99.90
14000;DHT22;7075;53.574;10.054;2023-02-13T00:47:19;8.20;99.90
14000;DHT22;7075;53.574;10.054;2023-02-13T00:49:44;8.30;99.90
14000;DHT22;7075;53.574;10.054;2023-02-13T00:52:11;8.20;99.90
14000;DHT22;7075;53.574;10.054;2023-02-13T00:54:36;8.20;99.90
14000;DHT22;7075;53.574;10.054;2023-02-13T00:57:02;8.20;99.90
14000;DHT22;7075;53.574;10.054;2023-02-13T00:59:28;8.10;99.90
14000;DHT22;7075;53.574;10.054;2023-02-13T01:01:53;8.10;99.90
14000;DHT22;7075;53.574;10.054;2023-02-13T01:04:19;8.10;99.90
14000;DHT22;7075;53.574;10.054;2023-02-13T01:06:44;8.20;99.90
14000;DHT22;7075;53.574;10.054;2023-02-13T01:09:10;8.10;99.90
14000;DHT22;7075;53.574;10.054;2023-02-13T01:11:36;8.10;99.90
14000;DHT22;7075;53.574;10.054;2023-02-13T01:14:01;8.10;99.90
14000;DHT22;7075;53.574;10.054;2023-02-13T01:16:27;8.10;99.90
14000;DHT22;7075;53.574;10.054;2023-02-13T01:18:53;8.10;99.90
14000;DHT22;7075;53.574;10.054;2023-02-13T01:21:20;8.10;99.90
14000;DHT22;7075;53.574;10.054;2023-02-13T01:23:46;8.10;99.90
14000;DHT22;7075;53.574;10.054;2023-02-13T01:26:21;8.10;99.90
14000;DHT22;7075;53.574;10.054;2023-02-13T01:28:46;8.10;99.90
14000;DHT22;7075;53.574;10.054;2023-02-13T01:31:12;8.10;99.90
14000;DHT22;7075;53.574;10.054;2023-02-13T01:33:38;8.10;99.90
14000;DHT22;7075;53.574;10.054;2023-02-13T01:36:10;8.10;99.90
14000;DHT22;7075;53.574;10.054;2023-02-13T01:38:36;8.20;99.90
14000;DHT22;7075;53.574;10.054;2023-02-13T01:41:02;8.10;99.90
14000;DHT22;7075;53.574;10.054;2023-02-13T01:43:52;8.10;99.90
14000;DHT22;7075;53.574;10.054;2023-02-13T01:46:40;8.10;99.90
14000;DHT22;7075;53.574;10.054;2023-02-13T01:49:33;8.10;99.90
14000;DHT22;7075;53.574;10.054;2023-02-13T01:51:59;8.00;99.90
14000;DHT22;7075;53.574;10.054;2023-02-13T01:54:27;8.00;99.90
14000;DHT22;7075;53.574;10.054;2023-02-13T01:57:00;8.00;99.90
14000;DHT22;7075;53.574;10.054;2023-02-13T01:59:32;8.00;99.90
14000;DHT22;7075;53.574;10.054;2023-02-13T02:01:59;8.10;99.90
14000;DHT22;7075;53.574;10.054;2023-02-13T02:04:31;8.10;99.90
14000;DHT22;7075;53.574;10.054;2023-02-13T02:07:03;8.00;99.90
14000;DHT22;7075;53.574;10.054;2023-02-13T02:09:34;8.00;99.90
14000;DHT22;7075;53.574;10.054;2023-02-13T02:12:26;8.00;99.90
14000;DHT22;7075;53.574;10.054;2023-02-13T02:14:55;8.00;99.90
14000;DHT22;7075;53.574;10.054;2023-02-13T02:17:24;8.00;99.90
14000;DHT22;7075;53.574;10.054;2023-02-13T02:20:19;8.00;99.90
14000;DHT22;7075;53.574;10.054;2023-02-13T02:34:36;8.10;99.90
14000;DHT22;7075;53.574;10.054;2023-02-13T02:37:31;8.00;99.90
14000;DHT22;7075;53.574;10.054;2023-02-13T02:40:17;8.00;99.90
14000;DHT22;7075;53.574;10.054;2023-02-13T02:45:27;8.00;99.90
14000;DHT22;7075;53.574;10.054;2023-02-13T02:56:35;8.10;99.90
14000;DHT22;7075;53.574;10.054;2023-02-13T02:59:05;8.00;99.90
14000;DHT22;7075;53.574;10.054;2023-02-13T03:01:52;8.00;99.90
14000;DHT22;7075;53.574;10.054;2023-02-13T03:04:45;8.00;99.90
14000;DHT22;7075;53.574;10.054;2023-02-13T03:07:31;8.00;99.90
14000;DHT22;7075;53.574;10.054;2023-02-13T03:09:59;8.00;99.90
14000;DHT22;7075;53.574;10.054;2023-02-13T03:12:50;8.00;99.90
14000;DHT22;7075;53.574;10.054;2023-02-13T03:15:38;8.10;99.90
14000;DHT22;7075;53.574;10.054;2023-02-13T03:18:24;8.00;99.90
14000;DHT22;7075;53.574;10.054;2023-02-13T03:21:16;8.00;99.90
14000;DHT22;7075;53.574;10.054;2023-02-13T03:24:09;8.00;99.90
14000;DHT22;7075;53.574;10.054;2023-02-13T03:26:57;7.90;99.90
14000;DHT22;7075;53.574;10.054;2023-02-13T03:35:15;8.00;99.90
14000;DHT22;7075;53.574;10.054;2023-02-13T03:38:20;7.90;99.90
14000;DHT22;7075;53.574;10.054;2023-02-13T03:40:50;7.90;99.90
14000;DHT22;7075;53.574;10.054;2023-02-13T03:46:52;7.90;99.90
14000;DHT22;7075;53.574;10.054;2023-02-13T03:52:28;7.90;99.90
14000;DHT22;7075;53.574;10.054;2023-02-13T03:55:03;7.80;99.90
14000;DHT22;7075;53.574;10.054;2023-02-13T03:57:51;7.90;99.90
14000;DHT22;7075;53.574;10.054;2023-02-13T04:00:42;7.90;99.90
14000;DHT22;7075;53.574;10.054;2023-02-13T04:03:13;7.90;99.90
14000;DHT22;7075;53.574;10.054;2023-02-13T04:05:49;7.90;99.90
14000;DHT22;7075;53.574;10.054;2023-02-13T04:08:16;7.90;99.90
14000;DHT22;7075;53.574;10.054;2023-02-13T04:10:51;8.00;99.90
14000;DHT22;7075;53.574;10.054;2023-02-13T04:16:14;7.90;99.90
14000;DHT22;7075;53.574;10.054;2023-02-13T04:18:41;7.90;99.90
14000;DHT22;7075;53.574;10.054;2023-02-13T04:21:07;7.90;99.90
14000;DHT22;7075;53.574;10.054;2023-02-13T04:23:33;7.90;99.90
14000;DHT22;7075;53.574;10.054;2023-02-13T04:26:02;7.90;99.90
14000;DHT22;7075;53.574;10.054;2023-02-13T04:28:29;7.90;99.90
14000;DHT22;7075;53.574;10.054;2023-02-13T04:30:55;7.90;99.90
14000;DHT22;7075;53.574;10.054;2023-02-13T04:33:22;7.80;99.90
14000;DHT22;7075;53.574;10.054;2023-02-13T04:35:47;7.80;99.90
14000;DHT22;7075;53.574;10.054;2023-02-13T04:38:13;7.80;99.90
14000;DHT22;7075;53.574;10.054;2023-02-13T04:40:38;7.80;99.90
14000;DHT22;7075;53.574;10.054;2023-02-13T04:43:04;7.80;99.90
14000;DHT22;7075;53.574;10.054;2023-02-13T04:45:29;7.90;99.90
14000;DHT22;7075;53.574;10.054;2023-02-13T04:47:56;7.90;99.90
14000;DHT22;7075;53.574;10.054;2023-02-13T04:50:22;7.80;99.90
14000;DHT22;7075;53.574;10.054;2023-02-13T04:52:52;7.80;99.90
14000;DHT22;7075;53.574;10.054;2023-02-13T04:55:19;7.80;99.90
14000;DHT22;7075;53.574;10.054;2023-02-13T04:57:44;7.90;99.90
14000;DHT22;7075;53.574;10.054;2023-02-13T05:00:10;7.80;99.90
14000;DHT22;7075;53.574;10.054;2023-02-13T05:02:36;7.80;99.90
14000;DHT22;7075;53.574;10.054;2023-02-13T05:05:02;7.80;99.90
14000;DHT22;7075;53.574;10.054;2023-02-13T05:07:27;7.90;99.90
14000;DHT22;7075;53.574;10.054;2023-02-13T05:09:53;7.90;99.90
14000;DHT22;7075;53.574;10.054;2023-02-13T05:12:19;7.90;99.90
14000;DHT22;7075;53.574;10.054;2023-02-13T05:14:44;7.90;99.90
14000;DHT22;7075;53.574;10.054;2023-02-13T05:17:10;7.90;99.90
14000;DHT22;7075;53.574;10.054;2023-02-13T05:19:35;7.90;99.90
14000;DHT22;7075;53.574;10.054;2023-02-13T05:22:01;7.90;99.90
14000;DHT22;7075;53.574;10.054;2023-02-13T05:24:45;8.00;99.90
14000;DHT22;7075;53.574;10.054;2023-02-13T05:27:10;7.90;99.90
14000;DHT22;7075;53.574;10.054;2023-02-13T05:29:36;8.00;99.90
14000;DHT22;7075;53.574;10.054;2023-02-13T05:32:02;8.00;99.90
14000;DHT22;7075;53.574;10.054;2023-02-13T05:34:28;8.00;99.90
14000;DHT22;7075;53.574;10.054;2023-02-13T05:36:54;8.00;99.90
14000;DHT22;7075;53.574;10.054;2023-02-13T05:39:20;8.10;99.90
14000;DHT22;7075;53.574;10.054;2023-02-13T05:41:46;8.10;99.90
14000;DHT22;7075;53.574;10.054;2023-02-13T05:44:13;8.00;99.90
14000;DHT22;7075;53.574;10.054;2023-02-13T05:46:40;8.00;99.90
14000;DHT22;7075;53.574;10.054;2023-02-13T05:49:07;8.00;99.90
14000;DHT22;7075;53.574;10.054;2023-02-13T05:51:33;8.00;99.90
14000;DHT22;7075;53.574;10.054;2023-02-13T05:53:58;8.00;99.90
14000;DHT22;7075;53.574;10.054;2023-02-13T05:56:24;8.00;99.90
14000;DHT22;7075;53.574;10.054;2023-02-13T05:58:51;8.00;99.90
14000;DHT22;7075;53.574;10.054;2023-02-13T06:01:17;8.00;99.90
14000;DHT22;7075;53.574;10.054;2023-02-13T06:03:42;8.00;99.90
14000;DHT22;7075;53.574;10.054;2023-02-13T06:06:08;8.00;99.90
14000;DHT22;7075;53.574;10.054;2023-02-13T06:08:33;8.00;99.90
14000;DHT22;7075;53.574;10.054;2023-02-13T06:10:59;8.10;99.90
14000;DHT22;7075;53.574;10.054;2023-02-13T06:13:25;8.00;99.90
14000;DHT22;7075;53.574;10.054;2023-02-13T06:15:52;8.00;99.90
14000;DHT22;7075;53.574;10.054;2023-02-13T06:18:18;8.00;99.90
14000;DHT22;7075;53.574;10.054;2023-02-13T06:20:44;8.00;99.90
14000;DHT22;7075;53.574;10.054;2023-02-13T06:23:09;8.00;99.90
14000;DHT22;7075;53.574;10.054;2023-02-13T06:25:35;8.00;99.90
14000;DHT22;7075;53.574;10.054;2023-02-13T06:28:02;8.00;99.90
14000;DHT22;7075;53.574;10.054;2023-02-13T06:30:27;8.00;99.90
14000;DHT22;7075;53.574;10.054;2023-02-13T06:32:53;7.90;99.90
14000;DHT22;7075;53.574;10.054;2023-02-13T06:35:18;7.90;99.90
14000;DHT22;7075;53.574;10.054;2023-02-13T06:37:44;7.90;99.90
14000;DHT22;7075;53.574;10.054;2023-02-13T06:40:11;7.80;99.90
14000;DHT22;7075;53.574;10.054;2023-02-13T06:42:37;7.80;99.90
14000;DHT22;7075;53.574;10.054;2023-02-13T06:45:04;7.80;99.90
14000;DHT22;7075;53.574;10.054;2023-02-13T06:47:29;7.80;99.90
14000;DHT22;7075;53.574;10.054;2023-02-13T06:49:55;7.80;99.90
14000;DHT22;7075;53.574;10.054;2023-02-13T06:52:20;7.80;99.90
14000;DHT22;7075;53.574;10.054;2023-02-13T06:54:46;7.80;99.90
14000;DHT22;7075;53.574;10.054;2023-02-13T06:57:12;7.80;99.90
14000;DHT22;7075;53.574;10.054;2023-02-13T06:59:38;7.80;99.90
14000;DHT22;7075;53.574;10.054;2023-02-13T07:02:03;7.80;99.90
14000;DHT22;7075;53.574;10.054;2023-02-13T07:04:29;7.80;99.90
14000;DHT22;7075;53.574;10.054;2023-02-13T07:06:55;7.80;99.90
14000;DHT22;7075;53.574;10.054;2023-02-13T07:09:24;7.80;99.90
14000;DHT22;7075;53.574;10.054;2023-02-13T07:11:49;7.90;99.90
14000;DHT22;7075;53.574;10.054;2023-02-13T07:14:15;7.80;99.90
14000;DHT22;7075;53.574;10.054;2023-02-13T07:16:40;7.80;99.90
14000;DHT22;7075;53.574;10.054;2023-02-13T07:19:06;7.80;99.90
14000;DHT22;7075;53.574;10.054;2023-02-13T07:21:32;7.80;99.90
14000;DHT22;7075;53.574;10.054;2023-02-13T07:23:57;7.80;99.90
14000;DHT22;7075;53.574;10.054;2023-02-13T07:26:23;7.80;99.90
14000;DHT22;7075;53.574;10.054;2023-02-13T07:28:49;7.90;99.90
14000;DHT22;7075;53.574;10.054;2023-02-13T07:31:14;7.80;99.90
14000;DHT22;7075;53.574;10.054;2023-02-13T07:33:40;7.80;99.90
14000;DHT22;7075;53.574;10.054;2023-02-13T07:36:06;7.80;99.90
14000;DHT22;7075;53.574;10.054;2023-02-13T07:38:32;7.80;99.90
14000;DHT22;7075;53.574;10.054;2023-02-13T07:41:01;7.80;99.90
14000;DHT22;7075;53.574;10.054;2023-02-13T07:43:28;7.70;99.90
14000;DHT22;7075;53.574;10.054;2023-02-13T07:45:58;7.80;99.90
14000;DHT22;7075;53.574;10.054;2023-02-13T07:48:24;7.80;99.90
14000;DHT22;7075;53.574;10.054;2023-02-13T07:50:52;7.80;99.90
14000;DHT22;7075;53.574;10.054;2023-02-13T07:53:18;7.80;99.90
14000;DHT22;7075;53.574;10.054;2023-02-13T07:55:43;7.80;99.90
14000;DHT22;7075;53.574;10.054;2023-02-13T07:58:09;7.80;99.90
14000;DHT22;7075;53.574;10.054;2023-02-13T08:00:35;7.80;99.90
14000;DHT22;7075;53.574;10.054;2023-02-13T08:03:01;7.80;99.90
14000;DHT22;7075;53.574;10.054;2023-02-13T08:05:27;7.80;99.90
14000;DHT22;7075;53.574;10.054;2023-02-13T08:07:53;7.80;99.90
14000;DHT22;7075;53.574;10.054;2023-02-13T08:10:19;7.80;99.90
14000;DHT22;7075;53.574;10.054;2023-02-13T08:13:04;7.80;99.90
14000;DHT22;7075;53.574;10.054;2023-02-13T08:15:31;7.90;99.90
14000;DHT22;7075;53.574;10.054;2023-02-13T08:17:56;7.90;99.90
14000;DHT22;7075;53.574;10.054;2023-02-13T08:20:22;7.90;99.90
14000;DHT22;7075;53.574;10.054;2023-02-13T08:22:48;7.90;99.90
14000;DHT22;7075;53.574;10.054;2023-02-13T08:25:14;7.90;99.90
14000;DHT22;7075;53.574;10.054;2023-02-13T08:27:40;7.90;99.90
14000;DHT22;7075;53.574;10.054;2023-02-13T08:30:07;7.90;99.90
14000;DHT22;7075;53.574;10.054;2023-02-13T08:32:33;7.90;99.90
14000;DHT22;7075;53.574;10.054;2023-02-13T08:34:58;7.90;99.90
14000;DHT22;7075;53.574;10.054;2023-02-13T08:37:25;7.90;99.90
14000;DHT22;7075;53.574;10.054;2023-02-13T08:39:50;7.90;99.90
14000;DHT22;7075;53.574;10.054;2023-02-13T08:42:16;7.90;99.90
14000;DHT22;7075;53.574;10.054;2023-02-13T08:44:42;7.80;99.90
14000;DHT22;7075;53.574;10.054;2023-02-13T08:47:08;7.80;99.90
14000;DHT22;7075;53.574;10.054;2023-02-13T08:49:34;7.90;99.90
14000;DHT22;7075;53.574;10.054;2023-02-13T08:52:00;7.90;99.90
14000;DHT22;7075;53.574;10.054;2023-02-13T08:54:26;8.00;99.90
14000;DHT22;7075;53.574;10.054;2023-02-13T08:56:53;8.00;99.90
14000;DHT22;7075;53.574;10.054;2023-02-13T08:59:19;8.10;99.90
14000;DHT22;7075;53.574;10.054;2023-02-13T09:01:45;8.10;99.90
14000;DHT22;7075;53.574;10.054;2023-02-13T09:04:10;8.10;99.90
14000;DHT22;7075;53.574;10.054;2023-02-13T09:06:36;8.00;99.90
14000;DHT22;7075;53.574;10.054;2023-02-13T09:09:04;8.10;99.90
14000;DHT22;7075;53.574;10.054;2023-02-13T09:11:29;8.00;99.90
14000;DHT22;7075;53.574;10.054;2023-02-13T09:13:55;8.00;99.90
14000;DHT22;7075;53.574;10.054;2023-02-13T09:16:21;8.00;99.90
14000;DHT22;7075;53.574;10.054;2023-02-13T09:18:48;8.00;99.90
14000;DHT22;7075;53.574;10.054;2023-02-13T09:21:14;8.00;99.90
14000;DHT22;7075;53.574;10.054;2023-02-13T09:23:40;8.10;99.90
14000;DHT22;7075;53.574;10.054;2023-02-13T09:26:08;8.10;99.90
14000;DHT22;7075;53.574;10.054;2023-02-13T09:28:35;8.00;99.90
14000;DHT22;7075;53.574;10.054;2023-02-13T09:31:08;8.00;99.90
14000;DHT22;7075;53.574;10.054;2023-02-13T09:33:34;8.00;99.90
14000;DHT22;7075;53.574;10.054;2023-02-13T09:36:08;8.10;99.90
14000;DHT22;7075;53.574;10.054;2023-02-13T09:38:34;8.10;99.90
14000;DHT22;7075;53.574;10.054;2023-02-13T09:41:04;8.00;99.90
14000;DHT22;7075;53.574;10.054;2023-02-13T09:46:20;8.10;99.90
14000;DHT22;7075;53.574;10.054;2023-02-13T09:48:49;8.10;99.90
14000;DHT22;7075;53.574;10.054;2023-02-13T09:51:18;8.20;99.90
14000;DHT22;7075;53.574;10.054;2023-02-13T09:53:52;8.20;99.90
14000;DHT22;7075;53.574;10.054;2023-02-13T09:59:37;8.20;99.90
14000;DHT22;7075;53.574;10.054;2023-02-13T10:07:56;8.30;99.90
14000;DHT22;7075;53.574;10.054;2023-02-13T10:13:15;8.20;99.90
14000;DHT22;7075;53.574;10.054;2023-02-13T10:16:01;8.30;99.90
14000;DHT22;7075;53.574;10.054;2023-02-13T10:18:54;8.30;99.90
14000;DHT22;7075;53.574;10.054;2023-02-13T10:21:25;8.30;99.90
14000;DHT22;7075;53.574;10.054;2023-02-13T10:24:19;8.40;99.90
14000;DHT22;7075;53.574;10.054;2023-02-13T10:26:50;8.40;99.90
14000;DHT22;7075;53.574;10.054;2023-02-13T10:29:35;8.40;99.90
14000;DHT22;7075;53.574;10.054;2023-02-13T10:32:26;8.40;99.90
14000;DHT22;7075;53.574;10.054;2023-02-13T10:34:54;8.30;99.90
14000;DHT22;7075;53.574;10.054;2023-02-13T10:37:21;8.30;99.90
14000;DHT22;7075;53.574;10.054;2023-02-13T10:39:49;8.30;99.90
14000;DHT22;7075;53.574;10.054;2023-02-13T10:53:22;8.20;99.90
14000;DHT22;7075;53.574;10.054;2023-02-13T10:56:25;8.20;99.90
14000;DHT22;7075;53.574;10.054;2023-02-13T10:59:46;8.20;99.90
14000;DHT22;7075;53.574;10.054;2023-02-13T11:04:47;8.10;99.90
14000;DHT22;7075;53.574;10.054;2023-02-13T11:07:17;8.10;99.90
14000;DHT22;7075;53.574;10.054;2023-02-13T11:09:46;8.20;99.90
14000;DHT22;7075;53.574;10.054;2023-02-13T11:12:29;8.20;99.90
14000;DHT22;7075;53.574;10.054;2023-02-13T11:15:00;8.30;99.90
14000;DHT22;7075;53.574;10.054;2023-02-13T11:17:34;8.30;99.90
14000;DHT22;7075;53.574;10.054;2023-02-13T11:20:07;8.30;99.90
14000;DHT22;7075;53.574;10.054;2023-02-13T11:22:48;8.30;99.90
14000;DHT22;7075;53.574;10.054;2023-02-13T11:25:22;8.30;99.90
14000;DHT22;7075;53.574;10.054;2023-02-13T11:27:49;8.30;99.90
14000;DHT22;7075;53.574;10.054;2023-02-13T11:30:29;8.40;99.90
14000;DHT22;7075;53.574;10.054;2023-02-13T11:33:04;8.40;99.90
14000;DHT22;7075;53.574;10.054;2023-02-13T11:35:35;8.40;99.90
14000;DHT22;7075;53.574;10.054;2023-02-13T11:41:02;8.40;99.90
14000;DHT22;7075;53.574;10.054;2023-02-13T11:43:30;8.40;99.90
14000;DHT22;7075;53.574;10.054;2023-02-13T11:46:13;8.20;99.90
14000;DHT22;7075;53.574;10.054;2023-02-13T11:48:42;8.10;99.90
14000;DHT22;7075;53.574;10.054;2023-02-13T11:51:08;8.20;99.90
14000;DHT22;7075;53.574;10.054;2023-02-13T11:53:38;8.20;99.90
14000;DHT22;7075;53.574;10.054;2023-02-13T11:56:11;8.20;99.90
14000;DHT22;7075;53.574;10.054;2023-02-13T11:58:37;8.20;99.90
14000;DHT22;7075;53.574;10.054;2023-02-13T12:06:25;8.20;99.90
14000;DHT22;7075;53.574;10.054;2023-02-13T12:08:51;8.20;99.90
14000;DHT22;7075;53.574;10.054;2023-02-13T12:13:49;8.40;99.90
14000;DHT22;7075;53.574;10.054;2023-02-13T12:18:52;8.30;99.90
14000;DHT22;7075;53.574;10.054;2023-02-13T12:22:21;8.30;99.90
14000;DHT22;7075;53.574;10.054;2023-02-13T12:24:50;8.30;99.90
14000;DHT22;7075;53.574;10.054;2023-02-13T12:30:20;8.30;99.90
14000;DHT22;7075;53.574;10.054;2023-02-13T12:46:10;8.40;99.90
14000;DHT22;7075;53.574;10.054;2023-02-13T12:51:48;8.40;99.90
14000;DHT22;7075;53.574;10.054;2023-02-13T12:55:12;8.40;99.90
14000;DHT22;7075;53.574;10.054;2023-02-13T13:00:27;8.50;99.90
14000;DHT22;7075;53.574;10.054;2023-02-13T13:03:04;8.60;99.90
14000;DHT22;7075;53.574;10.054;2023-02-13T13:05:50;8.70;99.90
14000;DHT22;7075;53.574;10.054;2023-02-13T13:11:32;8.70;99.90
14000;DHT22;7075;53.574;10.054;2023-02-13T13:14:05;8.70;99.90
14000;DHT22;7075;53.574;10.054;2023-02-13T13:19:39;8.70;99.90
14000;DHT22;7075;53.574;10.054;2023-02-13T13:22:14;8.60;99.90
14000;DHT22;7075;53.574;10.054;2023-02-13T13:25:10;8.60;99.90
14000;DHT22;7075;53.574;10.054;2023-02-13T13:27:43;8.60;99.90
14000;DHT22;7075;53.574;10.054;2023-02-13T13:30:30;8.50;99.90
14000;DHT22;7075;53.574;10.054;2023-02-13T13:35:38;8.50;99.90
14000;DHT22;7075;53.574;10.054;2023-02-13T13:40:45;8.40;99.90
14000;DHT22;7075;53.574;10.054;2023-02-13T13:43:24;8.40;99.90
14000;DHT22;7075;53.574;10.054;2023-02-13T13:46:10;8.50;99.90
14000;DHT22;7075;53.574;10.054;2023-02-13T13:51:43;8.50;99.90
14000;DHT22;7075;53.574;10.054;2023-02-13T14:07:49;8.50;99.90
14000;DHT22;7075;53.574;10.054;2023-02-13T14:29:41;8.60;99.90
14000;DHT22;7075;53.574;10.054;2023-02-13T14:37:54;8.50;99.90
14000;DHT22;7075;53.574;10.054;2023-02-13T14:43:00;8.50;99.90
14000;DHT22;7075;53.574;10.054;2023-02-13T14:45:32;8.50;99.90
14000;DHT22;7075;53.574;10.054;2023-02-13T14:48:12;8.50;99.90
14000;DHT22;7075;53.574;10.054;2023-02-13T14:50:54;8.50;99.90
14000;DHT22;7075;53.574;10.054;2023-02-13T14:53:30;8.50;99.90
14000;DHT22;7075;53.574;10.054;2023-02-13T14:56:05;8.50;99.90
14000;DHT22;7075;53.574;10.054;2023-02-13T14:58:35;8.50;99.90
14000;DHT22;7075;53.574;10.054;2023-02-13T15:01:05;8.60;99.90
14000;DHT22;7075;53.574;10.054;2023-02-13T15:03:46;8.50;99.90
14000;DHT22;7075;53.574;10.054;2023-02-13T15:06:51;8.50;99.90
14000;DHT22;7075;53.574;10.054;2023-02-13T15:09:39;8.50;99.90
14000;DHT22;7075;53.574;10.054;2023-02-13T15:14:56;8.50;99.90
14000;DHT22;7075;53.574;10.054;2023-02-13T15:17:25;8.50;99.90
14000;DHT22;7075;53.574;10.054;2023-02-13T15:20:05;8.40;99.90
14000;DHT22;7075;53.574;10.054;2023-02-13T15:22:45;8.40;99.90
14000;DHT22;7075;53.574;10.054;2023-02-13T15:25:33;8.50;99.90
14000;DHT22;7075;53.574;10.054;2023-02-13T15:28:02;8.50;99.90
14000;DHT22;7075;53.574;10.054;2023-02-13T15:30:34;8.50;99.90
14000;DHT22;7075;53.574;10.054;2023-02-13T15:33:21;8.50;99.90
14000;DHT22;7075;53.574;10.054;2023-02-13T15:35:57;8.50;99.90
14000;DHT22;7075;53.574;10.054;2023-02-13T15:38:29;8.50;99.90
14000;DHT22;7075;53.574;10.054;2023-02-13T15:41:01;8.50;99.90
14000;DHT22;7075;53.574;10.054;2023-02-13T15:43:38;8.50;99.90
14000;DHT22;7075;53.574;10.054;2023-02-13T15:46:07;8.40;99.90
14000;DHT22;7075;53.574;10.054;2023-02-13T15:48:43;8.50;99.90
14000;DHT22;7075;53.574;10.054;2023-02-13T15:51:22;8.40;99.90
14000;DHT22;7075;53.574;10.054;2023-02-13T15:53:52;8.40;99.90
14000;DHT22;7075;53.574;10.054;2023-02-13T15:56:18;8.40;99.90
14000;DHT22;7075;53.574;10.054;2023-02-13T15:58:44;8.40;99.90
14000;DHT22;7075;53.574;10.054;2023-02-13T16:01:11;8.30;99.90
14000;DHT22;7075;53.574;10.054;2023-02-13T16:03:39;8.10;99.90
14000;DHT22;7075;53.574;10.054;2023-02-13T16:06:06;8.20;99.90
14000;DHT22;7075;53.574;10.054;2023-02-13T16:08:35;8.30;99.90
14000;DHT22;7075;53.574;10.054;2023-02-13T16:13:34;8.30;99.90
14000;DHT22;7075;53.574;10.054;2023-02-13T16:16:02;8.30;99.90
14000;DHT22;7075;53.574;10.054;2023-02-13T16:18:32;8.30;99.90
14000;DHT22;7075;53.574;10.054;2023-02-13T16:20:57;8.40;99.90
14000;DHT22;7075;53.574;10.054;2023-02-13T16:23:23;8.40;99.90
14000;DHT22;7075;53.574;10.054;2023-02-13T16:25:49;8.40;99.90
14000;DHT22;7075;53.574;10.054;2023-02-13T16:28:18;8.30;99.90
14000;DHT22;7075;53.574;10.054;2023-02-13T16:30:51;8.40;99.90
14000;DHT22;7075;53.574;10.054;2023-02-13T16:38:39;8.40;99.90
14000;DHT22;7075;53.574;10.054;2023-02-13T16:44:02;8.30;99.90
14000;DHT22;7075;53.574;10.054;2023-02-13T16:46:30;8.20;99.90
14000;DHT22;7075;53.574;10.054;2023-02-13T16:57:04;8.30;99.90
14000;DHT22;7075;53.574;10.054;2023-02-13T16:59:57;8.30;99.90
14000;DHT22;7075;53.574;10.054;2023-02-13T17:02:32;8.30;99.90
14000;DHT22;7075;53.574;10.054;2023-02-13T17:05:26;8.30;99.90
14000;DHT22;7075;53.574;10.054;2023-02-13T17:07:53;8.40;99.90
14000;DHT22;7075;53.574;10.054;2023-02-13T17:10:30;8.40;99.90
14000;DHT22;7075;53.574;10.054;2023-02-13T17:13:00;8.40;99.90
14000;DHT22;7075;53.574;10.054;2023-02-13T17:15:31;8.40;99.90
14000;DHT22;7075;53.574;10.054;2023-02-13T17:17:56;8.40;99.90
14000;DHT22;7075;53.574;10.054;2023-02-13T17:20:25;8.40;99.90
14000;DHT22;7075;53.574;10.054;2023-02-13T17:22:56;8.40;99.90
14000;DHT22;7075;53.574;10.054;2023-02-13T17:25:24;8.40;99.90
14000;DHT22;7075;53.574;10.054;2023-02-13T17:27:52;8.40;99.90
14000;DHT22;7075;53.574;10.054;2023-02-13T17:30:24;8.40;99.90
14000;DHT22;7075;53.574;10.054;2023-02-13T17:32:54;8.30;99.90
14000;DHT22;7075;53.574;10.054;2023-02-13T17:35:21;8.30;99.90
14000;DHT22;7075;53.574;10.054;2023-02-13T17:37:47;8.30;99.90
14000;DHT22;7075;53.574;10.054;2023-02-13T17:40:18;8.30;99.90
14000;DHT22;7075;53.574;10.054;2023-02-13T17:42:46;8.30;99.90
14000;DHT22;7075;53.574;10.054;2023-02-13T17:45:17;8.30;99.90
14000;DHT22;7075;53.574;10.054;2023-02-13T17:47:43;8.30;99.90
14000;DHT22;7075;53.574;10.054;2023-02-13T17:50:09;8.20;99.90
14000;DHT22;7075;53.574;10.054;2023-02-13T17:52:36;8.20;99.90
14000;DHT22;7075;53.574;10.054;2023-02-13T17:55:03;8.20;99.90
14000;DHT22;7075;53.574;10.054;2023-02-13T17:57:29;8.20;99.90
14000;DHT22;7075;53.574;10.054;2023-02-13T17:59:54;8.20;99.90
14000;DHT22;7075;53.574;10.054;2023-02-13T18:02:22;8.20;99.90
14000;DHT22;7075;53.574;10.054;2023-02-13T18:04:49;8.20;99.90
14000;DHT22;7075;53.574;10.054;2023-02-13T18:07:16;8.30;99.90
14000;DHT22;7075;53.574;10.054;2023-02-13T18:09:43;8.20;99.90
14000;DHT22;7075;53.574;10.054;2023-02-13T18:12:21;8.20;99.90
14000;DHT22;7075;53.574;10.054;2023-02-13T18:14:47;8.20;99.90
14000;DHT22;7075;53.574;10.054;2023-02-13T18:17:13;8.20;99.90
14000;DHT22;7075;53.574;10.054;2023-02-13T18:19:39;8.10;99.90
14000;DHT22;7075;53.574;10.054;2023-02-13T18:22:06;8.10;99.90
14000;DHT22;7075;53.574;10.054;2023-02-13T18:24:34;8.10;99.90
14000;DHT22;7075;53.574;10.054;2023-02-13T18:27:02;8.10;99.90
14000;DHT22;7075;53.574;10.054;2023-02-13T18:29:28;8.10;99.90
14000;DHT22;7075;53.574;10.054;2023-02-13T18:31:54;8.00;99.90
14000;DHT22;7075;53.574;10.054;2023-02-13T18:34:21;8.00;99.90
14000;DHT22;7075;53.574;10.054;2023-02-13T18:36:49;8.00;99.90
14000;DHT22;7075;53.574;10.054;2023-02-13T18:39:15;8.00;99.90
14000;DHT22;7075;53.574;10.054;2023-02-13T18:41:41;8.00;99.90
14000;DHT22;7075;53.574;10.054;2023-02-13T18:44:07;8.10;99.90
14000;DHT22;7075;53.574;10.054;2023-02-13T18:46:32;8.10;99.90
14000;DHT22;7075;53.574;10.054;2023-02-13T18:48:58;8.10;99.90
14000;DHT22;7075;53.574;10.054;2023-02-13T18:51:24;8.10;99.90
14000;DHT22;7075;53.574;10.054;2023-02-13T18:53:50;8.00;99.90
14000;DHT22;7075;53.574;10.054;2023-02-13T18:56:17;7.90;99.90
14000;DHT22;7075;53.574;10.054;2023-02-13T18:58:45;7.90;99.90
14000;DHT22;7075;53.574;10.054;2023-02-13T19:01:14;7.90;99.90
14000;DHT22;7075;53.574;10.054;2023-02-13T19:03:42;7.90;99.90
14000;DHT22;7075;53.574;10.054;2023-02-13T19:06:11;8.00;99.90